Time;durP1;ratioP1;P1;durP2;ratioP2;P2;SDS_P1;SDS_P2;PMS_P1;PMS_P2;Temp;Humidity;BMP_temperature;BMP_pressure;BME280_temperature;BME280_humidity;BME280_pressure;Samples;Min_cycle;Max_cycle;Signal;HPM_P1;HPM_P2
2021/07/14 00:00:07;;;;;;;3.00;1.47;;;;;;;;;;5009836;28;20014;-66
2021/07/14 00:02:32;;;;;;;1.40;1.30;;;;;;;;;;5011274;28;20800;-65
2021/07/14 00:04:57;;;;;;;4.30;1.60;;;;;;;;;;5009705;28;20085;-65
2021/07/14 00:07:22;;;;;;;3.33;1.80;;;;;;;;;;5009188;28;20435;-65
2021/07/14 00:09:48;;;;;;;1.30;1.20;;;;;;;;;;5009578;28;20049;-67
2021/07/14 00:12:15;;;;;;;4.20;1.80;;;;;;;;;;5008864;28;20042;-65
2021/07/14 00:22:21;;;;;;;2.30;1.63;;;;;;;;;;5009000;28;19955;-66
2021/07/14 00:24:46;;;;;;;1.73;1.63;;;;;;;;;;5008939;28;20050;-66
2021/07/14 00:27:12;;;;;;;2.00;1.80;;;;;;;;;;5008791;28;20045;-66
2021/07/14 00:29:48;;;;;;;1.83;1.73;;;;;;;;;;5011068;28;20022;-65
2021/07/14 00:32:13;;;;;;;2.70;2.20;;;;;;;;;;5009372;28;20037;-66
2021/07/14 00:34:39;;;;;;;2.15;2.00;;;;;;;;;;5009268;28;20041;-65
2021/07/14 00:37:04;;;;;;;2.60;2.40;;;;;;;;;;5007734;28;20034;-66
2021/07/14 00:39:29;;;;;;;3.95;2.60;;;;;;;;;;5008930;28;20064;-65
2021/07/14 00:41:54;;;;;;;3.38;2.17;;;;;;;;;;5007180;28;20112;-66
2021/07/14 00:44:19;;;;;;;2.70;2.50;;;;;;;;;;5010343;28;20475;-66
2021/07/14 00:46:48;;;;;;;4.53;2.67;;;;;;;;;;5008796;28;20269;-66
2021/07/14 00:49:14;;;;;;;3.28;2.58;;;;;;;;;;5008946;28;20494;-66
2021/07/14 00:51:39;;;;;;;5.10;2.20;;;;;;;;;;5008796;28;20076;-66
2021/07/14 00:54:04;;;;;;;3.08;1.73;;;;;;;;;;5008398;28;20033;-66
2021/07/14 00:56:30;;;;;;;3.05;2.33;;;;;;;;;;5010048;28;20033;-65
2021/07/14 00:58:56;;;;;;;3.33;1.92;;;;;;;;;;5007278;28;20508;-66
2021/07/14 01:01:22;;;;;;;2.80;2.22;;;;;;;;;;5007454;28;20041;-66
2021/07/14 01:03:53;;;;;;;2.67;2.10;;;;;;;;;;5006806;28;20034;-66
2021/07/14 01:06:41;;;;;;;3.22;1.90;;;;;;;;;;5008474;28;20032;-66
2021/07/14 01:09:07;;;;;;;3.00;1.95;;;;;;;;;;5008678;28;20593;-65
2021/07/14 01:11:33;;;;;;;3.10;2.30;;;;;;;;;;5010232;28;20072;-65
2021/07/14 01:14:23;;;;;;;2.33;2.03;;;;;;;;;;5007995;28;20124;-65
2021/07/14 01:16:56;;;;;;;3.72;2.35;;;;;;;;;;5008591;28;20026;-65
2021/07/14 01:19:40;;;;;;;3.17;2.40;;;;;;;;;;5012057;28;20034;-66
2021/07/14 01:22:12;;;;;;;7.15;2.88;;;;;;;;;;5012872;28;20109;-65
2021/07/14 01:25:09;;;;;;;3.17;2.30;;;;;;;;;;5011478;28;20046;-65
2021/07/14 01:27:37;;;;;;;2.22;2.03;;;;;;;;;;4989556;28;20168;-65
2021/07/14 01:30:05;;;;;;;4.50;2.30;;;;;;;;;;5012487;28;20026;-65
2021/07/14 01:32:33;;;;;;;3.00;2.50;;;;;;;;;;5012816;28;20496;-65
2021/07/14 01:35:00;;;;;;;2.40;2.20;;;;;;;;;;5012401;28;20049;-66
2021/07/14 01:37:26;;;;;;;2.90;2.38;;;;;;;;;;5012053;28;20033;-65
2021/07/14 01:39:54;;;;;;;5.43;2.13;;;;;;;;;;5011023;28;20048;-65
2021/07/14 01:42:21;;;;;;;2.70;2.47;;;;;;;;;;5010983;28;20041;-64
2021/07/14 01:44:48;;;;;;;3.63;2.53;;;;;;;;;;5013987;28;20379;-65
2021/07/14 01:47:13;;;;;;;2.80;2.15;;;;;;;;;;5012276;28;20107;-65
2021/07/14 01:49:41;;;;;;;2.75;2.35;;;;;;;;;;5012461;28;20042;-65
2021/07/14 01:52:09;;;;;;;3.17;2.30;;;;;;;;;;5011827;28;20042;-65
2021/07/14 01:54:35;;;;;;;5.30;2.42;;;;;;;;;;5011703;28;20058;-65
2021/07/14 01:57:01;;;;;;;2.35;2.15;;;;;;;;;;5011322;28;20033;-65
2021/07/14 01:59:27;;;;;;;3.95;2.22;;;;;;;;;;5013764;28;20022;-65
2021/07/14 02:01:53;;;;;;;3.80;2.30;;;;;;;;;;5011978;28;20739;-65
2021/07/14 02:04:30;;;;;;;2.13;1.98;;;;;;;;;;5010570;28;20042;-65
2021/07/14 02:06:56;;;;;;;2.70;2.50;;;;;;;;;;5010840;28;20116;-65
2021/07/14 02:09:21;;;;;;;2.40;2.20;;;;;;;;;;5011448;28;20034;-66
2021/07/14 02:11:47;;;;;;;2.83;2.45;;;;;;;;;;5013118;28;20029;-66
2021/07/14 02:14:15;;;;;;;2.22;2.10;;;;;;;;;;5011095;28;20053;-65
2021/07/14 02:16:41;;;;;;;2.60;2.42;;;;;;;;;;5010134;28;20526;-65
2021/07/14 02:19:06;;;;;;;5.80;2.45;;;;;;;;;;5010238;28;20481;-65
2021/07/14 02:21:33;;;;;;;6.35;2.10;;;;;;;;;;5011471;28;20038;-65
2021/07/14 02:23:58;;;;;;;3.10;2.85;;;;;;;;;;5011007;28;20044;-65
2021/07/14 02:26:24;;;;;;;3.00;2.08;;;;;;;;;;5012879;28;20101;-65
2021/07/14 02:28:49;;;;;;;3.67;2.17;;;;;;;;;;5010834;28;20116;-65
2021/07/14 02:31:14;;;;;;;2.47;2.23;;;;;;;;;;5011420;28;20432;-64
2021/07/14 02:33:40;;;;;;;2.37;2.17;;;;;;;;;;5010899;28;20272;-65
2021/07/14 02:36:07;;;;;;;4.03;2.30;;;;;;;;;;5011356;28;20276;-65
2021/07/14 02:38:38;;;;;;;2.83;2.03;;;;;;;;;;5013013;28;20108;-65
2021/07/14 02:41:07;;;;;;;3.13;2.80;;;;;;;;;;5010554;28;20508;-65
2021/07/14 02:43:34;;;;;;;4.28;1.70;;;;;;;;;;5025758;28;20084;-65
2021/07/14 02:46:03;;;;;;;3.72;1.88;;;;;;;;;;5009843;28;20430;-65
2021/07/14 02:48:28;;;;;;;2.20;2.00;;;;;;;;;;5011040;28;20033;-65
2021/07/14 02:50:55;;;;;;;3.70;2.10;;;;;;;;;;5011011;28;20022;-65
2021/07/14 02:53:22;;;;;;;4.35;2.05;;;;;;;;;;5011257;28;20130;-65
2021/07/14 02:55:51;;;;;;;3.33;2.88;;;;;;;;;;5010946;28;20116;-65
2021/07/14 02:58:20;;;;;;;2.33;1.90;;;;;;;;;;5010729;28;20030;-65
2021/07/14 03:00:46;;;;;;;2.05;1.95;;;;;;;;;;5009602;28;20034;-65
2021/07/14 03:03:11;;;;;;;3.83;2.05;;;;;;;;;;5010494;28;20025;-65
2021/07/14 03:05:37;;;;;;;2.47;2.28;;;;;;;;;;5011514;28;20033;-65
2021/07/14 03:08:06;;;;;;;2.45;2.10;;;;;;;;;;5010718;28;20537;-65
2021/07/14 03:10:31;;;;;;;2.40;2.20;;;;;;;;;;5010749;28;20030;-65
2021/07/14 03:13:02;;;;;;;3.42;2.20;;;;;;;;;;5009511;28;20390;-65
2021/07/14 03:15:28;;;;;;;3.53;2.45;;;;;;;;;;5010629;28;20080;-65
2021/07/14 03:17:54;;;;;;;3.72;2.50;;;;;;;;;;5010635;28;20022;-65
2021/07/14 03:20:19;;;;;;;2.50;2.30;;;;;;;;;;5012531;28;20406;-65
2021/07/14 03:22:46;;;;;;;2.40;2.20;;;;;;;;;;5010187;28;20491;-65
2021/07/14 03:25:12;;;;;;;8.52;2.42;;;;;;;;;;5010032;28;20802;-65
2021/07/14 03:27:38;;;;;;;5.85;2.13;;;;;;;;;;5009689;28;20041;-65
2021/07/14 03:30:04;;;;;;;4.43;2.60;;;;;;;;;;5010083;28;20025;-65
2021/07/14 03:32:29;;;;;;;3.28;1.90;;;;;;;;;;5011747;28;20030;-65
2021/07/14 03:34:54;;;;;;;3.55;2.50;;;;;;;;;;5008610;28;20056;-65
2021/07/14 03:37:20;;;;;;;2.63;2.42;;;;;;;;;;5009937;28;20088;-65
2021/07/14 03:39:46;;;;;;;3.05;2.10;;;;;;;;;;5008759;28;20124;-65
2021/07/14 03:42:15;;;;;;;2.50;2.10;;;;;;;;;;5008394;28;20041;-65
2021/07/14 03:44:41;;;;;;;2.70;1.95;;;;;;;;;;5010488;28;20029;-65
2021/07/14 03:47:06;;;;;;;1.83;1.40;;;;;;;;;;5010001;28;20029;-65
2021/07/14 03:49:32;;;;;;;3.08;1.65;;;;;;;;;;5009785;28;20068;-65
2021/07/14 03:51:57;;;;;;;1.92;1.70;;;;;;;;;;5009865;28;20038;-66
2021/07/14 03:54:24;;;;;;;2.33;1.63;;;;;;;;;;5009213;28;20434;-65
2021/07/14 03:56:49;;;;;;;3.97;2.00;;;;;;;;;;5007414;28;20058;-65
2021/07/14 03:59:15;;;;;;;2.42;1.63;;;;;;;;;;5008828;28;20054;-65
2021/07/14 04:01:41;;;;;;;3.42;1.60;;;;;;;;;;5007979;28;20080;-65
2021/07/14 04:04:06;;;;;;;2.63;1.70;;;;;;;;;;5009141;28;20118;-65
2021/07/14 04:06:34;;;;;;;1.63;1.52;;;;;;;;;;5009630;28;20116;-65
2021/07/14 04:09:17;;;;;;;1.90;1.80;;;;;;;;;;5009559;28;20017;-65
2021/07/14 04:11:43;;;;;;;1.70;1.60;;;;;;;;;;5006438;28;20366;-65
2021/07/14 04:14:09;;;;;;;1.85;1.75;;;;;;;;;;4999283;28;20550;-65
2021/07/14 04:16:34;;;;;;;2.25;1.70;;;;;;;;;;5008009;28;20120;-65
2021/07/14 04:19:00;;;;;;;1.70;1.52;;;;;;;;;;5009402;28;20040;-65
2021/07/14 04:21:25;;;;;;;4.00;1.60;;;;;;;;;;5007950;28;20022;-65
2021/07/14 04:23:50;;;;;;;3.58;1.70;;;;;;;;;;5010846;28;20030;-64
2021/07/14 04:26:16;;;;;;;1.77;1.67;;;;;;;;;;5008758;28;20033;-65
2021/07/14 04:28:41;;;;;;;1.73;1.60;;;;;;;;;;5007687;28;20022;-65
2021/07/14 04:31:06;;;;;;;2.03;1.60;;;;;;;;;;5008982;28;20281;-64
2021/07/14 04:33:31;;;;;;;2.67;1.80;;;;;;;;;;5007388;28;20030;-64
2021/07/14 04:35:56;;;;;;;2.67;1.60;;;;;;;;;;5008952;28;20272;-65
2021/07/14 04:38:22;;;;;;;1.70;1.60;;;;;;;;;;5010999;28;20751;-65
2021/07/14 04:40:47;;;;;;;3.45;1.48;;;;;;;;;;5009040;28;20312;-65
2021/07/14 04:43:13;;;;;;;2.95;1.55;;;;;;;;;;5006681;28;20030;-64
2021/07/14 04:45:38;;;;;;;3.47;1.48;;;;;;;;;;5008798;28;20387;-64
2021/07/14 04:48:03;;;;;;;2.08;1.48;;;;;;;;;;5007462;28;20503;-67
2021/07/14 04:50:29;;;;;;;5.75;1.35;;;;;;;;;;5010886;28;20041;-65
2021/07/14 04:52:54;;;;;;;2.47;1.13;;;;;;;;;;5008258;28;20030;-64
2021/07/14 04:55:19;;;;;;;0.98;0.98;;;;;;;;;;5008524;28;20033;-65
2021/07/14 04:57:45;;;;;;;2.22;1.20;;;;;;;;;;5006652;28;20045;-65
2021/07/14 05:00:10;;;;;;;1.50;1.40;;;;;;;;;;5008433;28;20032;-65
2021/07/14 05:02:36;;;;;;;1.25;1.13;;;;;;;;;;5009828;28;20021;-64
2021/07/14 05:05:01;;;;;;;1.60;1.50;;;;;;;;;;5008531;28;20111;-64
2021/07/14 05:07:29;;;;;;;2.88;1.63;;;;;;;;;;5008451;28;20037;-64
2021/07/14 05:09:54;;;;;;;2.20;1.48;;;;;;;;;;5008481;28;20046;-64
2021/07/14 05:12:19;;;;;;;4.37;1.43;;;;;;;;;;5007546;28;20045;-66
2021/07/14 05:14:45;;;;;;;3.00;1.47;;;;;;;;;;5010262;28;20293;-64
2021/07/14 05:17:10;;;;;;;3.00;1.53;;;;;;;;;;5008503;28;20291;-64
2021/07/14 05:19:35;;;;;;;4.10;1.60;;;;;;;;;;5007096;28;20813;-65
2021/07/14 05:22:00;;;;;;;2.95;1.40;;;;;;;;;;5007102;28;20553;-66
2021/07/14 05:24:25;;;;;;;3.00;1.63;;;;;;;;;;5008180;28;20486;-65
2021/07/14 05:26:51;;;;;;;1.88;1.20;;;;;;;;;;5009535;28;20089;-65
2021/07/14 05:29:16;;;;;;;3.60;1.38;;;;;;;;;;5006878;28;20046;-65
2021/07/14 05:31:41;;;;;;;3.22;1.60;;;;;;;;;;5008287;28;20172;-65
2021/07/14 05:34:06;;;;;;;3.33;1.30;;;;;;;;;;5007374;28;20073;-65
2021/07/14 05:36:32;;;;;;;2.00;1.45;;;;;;;;;;5006890;28;20349;-65
2021/07/14 05:38:58;;;;;;;1.60;1.50;;;;;;;;;;5007933;28;20018;-65
2021/07/14 05:41:24;;;;;;;4.75;1.45;;;;;;;;;;5010479;28;20044;-65
2021/07/14 05:43:49;;;;;;;1.33;1.23;;;;;;;;;;5007036;28;20451;-66
2021/07/14 05:46:14;;;;;;;1.63;1.52;;;;;;;;;;5006809;28;20044;-65
2021/07/14 05:48:39;;;;;;;3.67;1.45;;;;;;;;;;5007225;28;20491;-65
2021/07/14 05:51:05;;;;;;;1.60;1.30;;;;;;;;;;5007306;28;20010;-66
2021/07/14 05:53:30;;;;;;;2.60;1.57;;;;;;;;;;5009008;28;20096;-65
2021/07/14 05:55:55;;;;;;;3.22;1.58;;;;;;;;;;5007053;28;20802;-66
2021/07/14 05:58:20;;;;;;;4.20;1.42;;;;;;;;;;5007429;28;20034;-66
2021/07/14 06:00:46;;;;;;;1.30;1.20;;;;;;;;;;5007990;28;20026;-65
2021/07/14 06:03:11;;;;;;;2.93;1.53;;;;;;;;;;5023097;28;20124;-66
2021/07/14 06:05:36;;;;;;;1.57;1.43;;;;;;;;;;5012877;28;20708;-66
2021/07/14 06:08:02;;;;;;;2.55;1.55;;;;;;;;;;5011334;28;20323;-65
2021/07/14 06:10:27;;;;;;;5.90;1.52;;;;;;;;;;5011357;28;20141;-66
2021/07/14 06:12:56;;;;;;;3.38;1.90;;;;;;;;;;5010527;28;20030;-67
2021/07/14 06:15:21;;;;;;;2.08;1.75;;;;;;;;;;5011174;28;20526;-66
2021/07/14 06:17:46;;;;;;;2.13;1.92;;;;;;;;;;5013665;28;20084;-65
2021/07/14 06:20:12;;;;;;;4.87;2.20;;;;;;;;;;5010294;28;20406;-64
2021/07/14 06:22:37;;;;;;;3.45;2.15;;;;;;;;;;5010794;28;20273;-66
2021/07/14 06:25:03;;;;;;;5.53;1.98;;;;;;;;;;5011375;28;20124;-65
2021/07/14 06:27:28;;;;;;;1.70;1.58;;;;;;;;;;5010982;28;20030;-65
2021/07/14 06:29:54;;;;;;;2.83;1.70;;;;;;;;;;5011045;28;20435;-66
2021/07/14 06:32:19;;;;;;;3.97;1.80;;;;;;;;;;5012740;28;20033;-65
2021/07/14 06:34:44;;;;;;;2.53;1.90;;;;;;;;;;5011413;28;20288;-65
2021/07/14 06:37:09;;;;;;;2.57;2.37;;;;;;;;;;5009988;28;20273;-66
2021/07/14 06:39:34;;;;;;;1.88;1.77;;;;;;;;;;5011274;28;21030;-66
2021/07/14 06:42:00;;;;;;;1.83;1.43;;;;;;;;;;5010685;28;20026;-66
2021/07/14 06:44:25;;;;;;;1.92;1.75;;;;;;;;;;5011181;28;20689;-66
2021/07/14 06:46:50;;;;;;;2.65;1.60;;;;;;;;;;5010917;28;20034;-66
2021/07/14 06:49:16;;;;;;;1.67;1.50;;;;;;;;;;5009805;28;20038;-67
2021/07/14 06:51:41;;;;;;;3.97;1.73;;;;;;;;;;5011116;28;20252;-65
2021/07/14 06:54:06;;;;;;;4.53;1.60;;;;;;;;;;5009781;28;20265;-66
2021/07/14 06:56:31;;;;;;;4.82;1.80;;;;;;;;;;5012624;28;20064;-66
2021/07/14 06:58:56;;;;;;;1.65;1.55;;;;;;;;;;5010105;28;20034;-66
2021/07/14 07:01:22;;;;;;;1.73;1.63;;;;;;;;;;5010816;28;20100;-65
2021/07/14 07:03:47;;;;;;;3.75;1.88;;;;;;;;;;5010210;28;20265;-65
2021/07/14 07:06:12;;;;;;;3.15;2.20;;;;;;;;;;5010398;28;20041;-65
2021/07/14 07:08:37;;;;;;;2.65;1.92;;;;;;;;;;5012498;28;20379;-66
2021/07/14 07:11:03;;;;;;;2.20;1.60;;;;;;;;;;5010692;28;20125;-65
2021/07/14 07:13:29;;;;;;;2.50;1.70;;;;;;;;;;5009572;28;20628;-66
2021/07/14 07:15:55;;;;;;;3.17;1.50;;;;;;;;;;5008938;28;20042;-67
2021/07/14 07:18:21;;;;;;;3.67;1.80;;;;;;;;;;5010395;28;20435;-67
2021/07/14 07:20:47;;;;;;;5.93;1.75;;;;;;;;;;5012275;28;20018;-66
2021/07/14 07:23:12;;;;;;;2.95;1.83;;;;;;;;;;5008519;28;20038;-66
2021/07/14 07:25:38;;;;;;;3.33;1.90;;;;;;;;;;5010052;28;20053;-66
2021/07/14 07:28:04;;;;;;;3.17;1.83;;;;;;;;;;5009885;28;20358;-66
2021/07/14 07:30:29;;;;;;;3.20;1.70;;;;;;;;;;5010180;28;20045;-66
2021/07/14 07:32:55;;;;;;;4.85;1.63;;;;;;;;;;5009728;28;20076;-66
2021/07/14 07:35:20;;;;;;;1.95;1.42;;;;;;;;;;5012031;28;20029;-66
2021/07/14 07:37:45;;;;;;;3.75;1.65;;;;;;;;;;5009951;28;20048;-66
2021/07/14 07:40:11;;;;;;;2.90;1.80;;;;;;;;;;5008857;28;20044;-66
2021/07/14 07:42:36;;;;;;;2.92;1.48;;;;;;;;;;5007655;28;20280;-66
2021/07/14 07:45:03;;;;;;;1.48;1.38;;;;;;;;;;5009648;28;20133;-66
2021/07/14 07:47:28;;;;;;;4.40;1.40;;;;;;;;;;5010557;28;20018;-66
2021/07/14 07:49:53;;;;;;;1.83;1.40;;;;;;;;;;5010142;28;20038;-66
2021/07/14 07:52:18;;;;;;;1.65;1.55;;;;;;;;;;5008284;28;20030;-66
2021/07/14 07:54:44;;;;;;;1.43;1.23;;;;;;;;;;5009826;28;20041;-66
2021/07/14 07:57:09;;;;;;;2.03;1.48;;;;;;;;;;5008582;28;20420;-67
2021/07/14 07:59:35;;;;;;;1.80;1.70;;;;;;;;;;5010874;28;20475;-66
2021/07/14 08:02:01;;;;;;;2.17;1.48;;;;;;;;;;5009587;28;20038;-66
2021/07/14 08:04:26;;;;;;;3.22;1.60;;;;;;;;;;5008939;28;20053;-67
2021/07/14 08:06:51;;;;;;;2.58;1.40;;;;;;;;;;5009009;28;20045;-66
2021/07/14 08:09:16;;;;;;;1.13;1.10;;;;;;;;;;5009067;28;20042;-66
2021/07/14 08:11:42;;;;;;;1.57;1.40;;;;;;;;;;5009531;28;20029;-67
2021/07/14 08:14:07;;;;;;;1.60;1.50;;;;;;;;;;5007244;28;20279;-67
2021/07/14 08:16:32;;;;;;;1.33;1.23;;;;;;;;;;5009231;28;20041;-67
2021/07/14 08:18:57;;;;;;;3.33;1.20;;;;;;;;;;5009530;28;20292;-67
2021/07/14 08:21:23;;;;;;;4.55;1.40;;;;;;;;;;5009027;28;20953;-67
2021/07/14 08:23:49;;;;;;;2.85;1.58;;;;;;;;;;5010703;28;20462;-67
2021/07/14 08:26:14;;;;;;;2.42;1.40;;;;;;;;;;5008843;28;20040;-67
2021/07/14 08:28:40;;;;;;;2.45;1.60;;;;;;;;;;5008454;28;20026;-67
2021/07/14 08:31:05;;;;;;;2.22;1.48;;;;;;;;;;5008854;28;20136;-67
2021/07/14 08:33:30;;;;;;;1.60;1.50;;;;;;;;;;5008165;28;20034;-67
2021/07/14 08:35:55;;;;;;;2.58;1.65;;;;;;;;;;5007327;28;20049;-67
2021/07/14 08:38:21;;;;;;;1.60;1.50;;;;;;;;;;5010997;28;20026;-68
2021/07/14 08:40:47;;;;;;;1.52;1.42;;;;;;;;;;5008983;28;20093;-68
2021/07/14 08:43:15;;;;;;;2.42;1.48;;;;;;;;;;5008172;28;20045;-67
2021/07/14 08:45:40;;;;;;;1.70;1.60;;;;;;;;;;5008671;28;20367;-67
2021/07/14 08:48:06;;;;;;;3.17;1.70;;;;;;;;;;5009056;28;20026;-68
2021/07/14 08:50:31;;;;;;;1.75;1.45;;;;;;;;;;5010889;28;20014;-67
2021/07/14 08:52:57;;;;;;;1.73;1.63;;;;;;;;;;5008032;28;20045;-67
2021/07/14 08:55:23;;;;;;;2.25;1.60;;;;;;;;;;5008271;28;20046;-69
2021/07/14 08:57:48;;;;;;;1.52;1.42;;;;;;;;;;5008010;28;20764;-68
2021/07/14 09:00:15;;;;;;;1.60;1.50;;;;;;;;;;5008486;28;20014;-68
2021/07/14 09:02:41;;;;;;;1.30;1.20;;;;;;;;;;5010241;28;20080;-67
2021/07/14 09:05:07;;;;;;;2.03;1.70;;;;;;;;;;5008530;28;20050;-67
2021/07/14 09:07:32;;;;;;;1.80;1.55;;;;;;;;;;5008439;28;20376;-67
2021/07/14 09:09:57;;;;;;;1.60;1.50;;;;;;;;;;5007412;28;20034;-68
2021/07/14 09:12:33;;;;;;;1.65;1.40;;;;;;;;;;5008121;28;20273;-67
2021/07/14 09:15:03;;;;;;;7.93;1.80;;;;;;;;;;5008740;28;20030;-67
2021/07/14 09:17:28;;;;;;;1.77;1.67;;;;;;;;;;5010402;28;20462;-67
2021/07/14 09:20:00;;;;;;;1.63;1.53;;;;;;;;;;5008504;28;20037;-66
2021/07/14 09:22:26;;;;;;;1.35;1.17;;;;;;;;;;5007967;28;20277;-67
2021/07/14 09:24:56;;;;;;;6.10;1.52;;;;;;;;;;5008256;28;20092;-66
2021/07/14 09:27:28;;;;;;;1.52;1.42;;;;;;;;;;5008406;28;20396;-66
2021/07/14 09:30:08;;;;;;;2.78;1.80;;;;;;;;;;5009536;28;20034;-67
2021/07/14 09:32:53;;;;;;;2.97;1.42;;;;;;;;;;5006980;28;20045;-66
2021/07/14 09:35:29;;;;;;;2.28;1.35;;;;;;;;;;5006606;28;20559;-67
2021/07/14 09:37:56;;;;;;;1.60;1.50;;;;;;;;;;5008418;28;20430;-66
2021/07/14 09:40:21;;;;;;;1.55;1.45;;;;;;;;;;5011373;28;20034;-66
2021/07/14 09:42:55;;;;;;;2.15;1.45;;;;;;;;;;5011134;28;20084;-66
2021/07/14 09:45:41;;;;;;;1.50;1.40;;;;;;;;;;5011949;28;20124;-68
2021/07/14 09:48:07;;;;;;;1.98;1.45;;;;;;;;;;5011620;28;20084;-67
2021/07/14 09:50:33;;;;;;;2.50;1.30;;;;;;;;;;5014130;28;20021;-68
2021/07/14 09:52:59;;;;;;;1.52;1.42;;;;;;;;;;5011597;28;20124;-67
2021/07/14 09:55:28;;;;;;;1.85;1.67;;;;;;;;;;5011903;28;20494;-67
2021/07/14 09:58:05;;;;;;;1.88;1.48;;;;;;;;;;5011584;28;20041;-67
2021/07/14 10:00:36;;;;;;;3.28;1.58;;;;;;;;;;5011734;28;20525;-67
2021/07/14 10:03:01;;;;;;;1.98;1.70;;;;;;;;;;5011559;28;20018;-67
2021/07/14 10:05:27;;;;;;;2.35;1.42;;;;;;;;;;5013895;28;20026;-67
2021/07/14 10:08:11;;;;;;;2.60;1.40;;;;;;;;;;5012314;28;20045;-67
2021/07/14 10:10:36;;;;;;;2.55;1.40;;;;;;;;;;5011881;28;20030;-67
2021/07/14 10:13:06;;;;;;;2.60;1.67;;;;;;;;;;4996595;28;20081;-67
2021/07/14 10:15:31;;;;;;;1.80;1.70;;;;;;;;;;5010867;28;20268;-67
2021/07/14 10:17:56;;;;;;;1.77;1.40;;;;;;;;;;5011533;28;20383;-66
2021/07/14 10:20:25;;;;;;;2.07;1.90;;;;;;;;;;5013302;28;20281;-68
2021/07/14 10:22:52;;;;;;;2.30;1.50;;;;;;;;;;5011193;28;20273;-68
2021/07/14 10:25:18;;;;;;;3.50;1.58;;;;;;;;;;5011162;28;20181;-68
2021/07/14 10:27:45;;;;;;;1.50;1.40;;;;;;;;;;5010946;28;20121;-66
2021/07/14 10:30:10;;;;;;;1.75;1.65;;;;;;;;;;5010650;28;20029;-66
2021/07/14 10:32:36;;;;;;;2.92;1.77;;;;;;;;;;5012679;28;20021;-68
2021/07/14 10:35:01;;;;;;;2.55;1.90;;;;;;;;;;5010923;28;20483;-67
2021/07/14 10:37:27;;;;;;;3.05;1.52;;;;;;;;;;5011181;28;20048;-68
2021/07/14 10:39:52;;;;;;;3.15;1.83;;;;;;;;;;5011106;28;20041;-69
2021/07/14 10:42:17;;;;;;;1.73;1.63;;;;;;;;;;5009077;28;20077;-68
2021/07/14 10:44:43;;;;;;;1.73;1.63;;;;;;;;;;5012650;28;20048;-67
2021/07/14 10:47:08;;;;;;;2.42;1.70;;;;;;;;;;5010965;28;20571;-67
2021/07/14 10:49:34;;;;;;;1.77;1.55;;;;;;;;;;5010760;28;20072;-67
2021/07/14 10:51:59;;;;;;;1.35;1.30;;;;;;;;;;5010788;28;20121;-67
2021/07/14 10:54:25;;;;;;;1.83;1.73;;;;;;;;;;5010287;28;20030;-67
2021/07/14 10:56:51;;;;;;;1.52;1.42;;;;;;;;;;5012597;28;20430;-67
2021/07/14 10:59:20;;;;;;;1.92;1.70;;;;;;;;;;5010151;28;20138;-67
2021/07/14 11:01:46;;;;;;;1.77;1.67;;;;;;;;;;5010412;28;20038;-67
2021/07/14 11:04:12;;;;;;;2.10;1.70;;;;;;;;;;5009688;28;20042;-68
2021/07/14 11:06:52;;;;;;;1.83;1.58;;;;;;;;;;5010513;28;20072;-67
2021/07/14 11:09:50;;;;;;;1.90;1.80;;;;;;;;;;5009470;28;20069;-68
2021/07/14 11:12:28;;;;;;;2.72;1.77;;;;;;;;;;4987349;28;20030;-68
2021/07/14 11:14:57;;;;;;;1.70;1.60;;;;;;;;;;5011849;28;20013;-68
2021/07/14 11:17:29;;;;;;;2.33;1.60;;;;;;;;;;5010651;28;20053;-68
2021/07/14 11:19:55;;;;;;;2.10;1.50;;;;;;;;;;5010381;28;20418;-69
2021/07/14 11:22:59;;;;;;;1.77;1.63;;;;;;;;;;5009881;28;20125;-68
2021/07/14 11:25:25;;;;;;;2.22;1.83;;;;;;;;;;4968645;28;20089;-68
2021/07/14 11:27:52;;;;;;;3.35;1.85;;;;;;;;;;4969053;28;20463;-67
2021/07/14 11:30:17;;;;;;;1.85;1.75;;;;;;;;;;4991556;28;20044;-67
2021/07/14 11:32:42;;;;;;;1.70;1.60;;;;;;;;;;5011276;28;20539;-68
2021/07/14 11:35:15;;;;;;;2.50;1.77;;;;;;;;;;5009957;28;20456;-68
2021/07/14 11:37:42;;;;;;;2.13;1.92;;;;;;;;;;5009969;28;20128;-69
2021/07/14 11:40:19;;;;;;;3.00;1.80;;;;;;;;;;5010036;28;20034;-68
2021/07/14 11:42:50;;;;;;;1.98;1.80;;;;;;;;;;5009401;28;20137;-70
2021/07/14 11:45:16;;;;;;;1.83;1.67;;;;;;;;;;5009135;28;20022;-70
2021/07/14 11:47:42;;;;;;;1.73;1.60;;;;;;;;;;5011668;28;20013;-69
2021/07/14 11:50:07;;;;;;;1.63;1.52;;;;;;;;;;5009764;28;20042;-68
2021/07/14 11:53:02;;;;;;;5.88;1.90;;;;;;;;;;5007662;28;20041;-69
2021/07/14 11:55:33;;;;;;;2.85;1.67;;;;;;;;;;5000684;28;20044;-68
2021/07/14 11:57:58;;;;;;;2.50;1.88;;;;;;;;;;5009531;28;20052;-69
2021/07/14 12:00:30;;;;;;;2.00;1.90;;;;;;;;;;5008774;28;20523;-70
2021/07/14 12:03:03;;;;;;;2.33;1.80;;;;;;;;;;5010397;28;20025;-69
2021/07/14 12:05:32;;;;;;;3.92;2.00;;;;;;;;;;5009743;28;20057;-67
2021/07/14 12:08:11;;;;;;;2.17;2.08;;;;;;;;;;5009510;28;20499;-67
2021/07/14 12:10:36;;;;;;;2.20;2.00;;;;;;;;;;5009404;28;20129;-67
2021/07/14 12:13:05;;;;;;;2.78;2.22;;;;;;;;;;5009140;28;20133;-68
2021/07/14 12:15:31;;;;;;;2.20;2.10;;;;;;;;;;5008920;28;20034;-70
2021/07/14 12:18:04;;;;;;;2.67;2.30;;;;;;;;;;5011153;28;20356;-69
2021/07/14 12:20:30;;;;;;;2.33;2.00;;;;;;;;;;5009498;28;20056;-69
2021/07/14 12:22:55;;;;;;;3.97;1.77;;;;;;;;;;5007286;28;20053;-68
2021/07/14 12:25:20;;;;;;;2.63;2.03;;;;;;;;;;5007514;28;20807;-69
2021/07/14 12:27:46;;;;;;;2.97;2.00;;;;;;;;;;5007771;28;20542;-68
2021/07/14 12:30:12;;;;;;;2.80;1.80;;;;;;;;;;5008266;28;20265;-69
2021/07/14 12:32:45;;;;;;;6.15;3.75;;;;;;;;;;5008931;28;20026;-69
2021/07/14 12:35:16;;;;;;;2.67;2.08;;;;;;;;;;5008869;28;20529;-69
2021/07/14 12:37:46;;;;;;;2.95;1.80;;;;;;;;;;5008997;28;20034;-68
2021/07/14 12:40:19;;;;;;;1.70;1.60;;;;;;;;;;5009180;28;20049;-69
2021/07/14 12:42:44;;;;;;;2.95;1.70;;;;;;;;;;5008336;28;20033;-69
2021/07/14 12:45:19;;;;;;;2.65;1.83;;;;;;;;;;5008067;28;20046;-69
2021/07/14 12:47:47;;;;;;;1.92;1.70;;;;;;;;;;5010763;28;20018;-69
2021/07/14 12:50:18;;;;;;;1.83;1.73;;;;;;;;;;5008678;28;20534;-70
2021/07/14 12:52:49;;;;;;;2.05;1.90;;;;;;;;;;5007139;28;20091;-69
2021/07/14 12:55:17;;;;;;;2.22;1.85;;;;;;;;;;5008795;28;20053;-69
2021/07/14 12:57:42;;;;;;;2.55;1.52;;;;;;;;;;5007367;28;20415;-69
2021/07/14 13:00:08;;;;;;;4.50;1.90;;;;;;;;;;5008209;28;20006;-69
2021/07/14 13:02:39;;;;;;;2.10;2.00;;;;;;;;;;5010160;28;20265;-68
2021/07/14 13:05:05;;;;;;;2.15;2.03;;;;;;;;;;5008687;28;20455;-68
2021/07/14 13:07:31;;;;;;;2.20;1.95;;;;;;;;;;5008591;28;20176;-69
2021/07/14 13:09:59;;;;;;;2.47;2.28;;;;;;;;;;5007098;28;20391;-70
2021/07/14 13:12:25;;;;;;;3.65;2.20;;;;;;;;;;5007943;28;20033;-69
2021/07/14 13:14:51;;;;;;;2.00;1.90;;;;;;;;;;5009009;28;20026;-70
2021/07/14 13:17:26;;;;;;;3.33;1.90;;;;;;;;;;5008407;28;20038;-69
2021/07/14 13:20:09;;;;;;;1.85;1.70;;;;;;;;;;5008486;28;20030;-69
2021/07/14 13:22:34;;;;;;;2.50;1.70;;;;;;;;;;5006831;28;20053;-69
2021/07/14 13:25:01;;;;;;;2.53;1.60;;;;;;;;;;5008412;28;20030;-69
2021/07/14 13:27:27;;;;;;;1.88;1.75;;;;;;;;;;5006857;28;20040;-69
2021/07/14 13:29:52;;;;;;;1.90;1.60;;;;;;;;;;5009671;28;20122;-68
2021/07/14 13:32:19;;;;;;;2.43;1.50;;;;;;;;;;5007957;28;20513;-68
2021/07/14 13:34:47;;;;;;;1.95;1.85;;;;;;;;;;5008201;28;20285;-68
2021/07/14 13:37:23;;;;;;;1.40;1.30;;;;;;;;;;5008489;28;20386;-69
2021/07/14 13:39:48;;;;;;;1.80;1.70;;;;;;;;;;5007142;28;20057;-69
2021/07/14 13:42:15;;;;;;;3.40;1.97;;;;;;;;;;5007919;28;20099;-69
2021/07/14 13:44:42;;;;;;;2.40;1.88;;;;;;;;;;5009743;28;20297;-69
2021/07/14 13:47:09;;;;;;;2.67;1.90;;;;;;;;;;5023090;28;20026;-69
2021/07/14 13:49:37;;;;;;;4.00;2.05;;;;;;;;;;5008294;28;20512;-69
2021/07/14 13:52:03;;;;;;;1.92;1.83;;;;;;;;;;5008117;28;20066;-69
2021/07/14 13:54:30;;;;;;;2.45;1.92;;;;;;;;;;5007936;28;20073;-69
2021/07/14 13:57:15;;;;;;;3.25;2.15;;;;;;;;;;5010121;28;20025;-69
2021/07/14 13:59:42;;;;;;;2.40;1.77;;;;;;;;;;5007441;28;20041;-69
2021/07/14 14:02:10;;;;;;;3.55;2.30;;;;;;;;;;5007570;28;20057;-69
2021/07/14 14:04:43;;;;;;;1.95;1.73;;;;;;;;;;5007718;28;20554;-70
2021/07/14 14:07:09;;;;;;;3.40;2.10;;;;;;;;;;5008017;28;20041;-70
2021/07/14 14:09:34;;;;;;;2.58;2.38;;;;;;;;;;5008014;28;20026;-69
2021/07/14 14:12:15;;;;;;;2.72;2.20;;;;;;;;;;5007712;28;20018;-68
2021/07/14 14:14:41;;;;;;;1.88;1.77;;;;;;;;;;5009424;28;20053;-69
2021/07/14 14:17:06;;;;;;;2.50;1.70;;;;;;;;;;5022761;28;20160;-69
2021/07/14 14:19:31;;;;;;;1.77;1.67;;;;;;;;;;5006806;28;20041;-69
2021/07/14 14:21:57;;;;;;;2.70;2.50;;;;;;;;;;5008068;28;20274;-70
2021/07/14 14:24:22;;;;;;;2.03;1.70;;;;;;;;;;5007481;28;20129;-72
2021/07/14 14:26:51;;;;;;;1.85;1.60;;;;;;;;;;5012004;28;20010;-69
2021/07/14 14:29:18;;;;;;;2.80;1.83;;;;;;;;;;5010958;28;20133;-69
2021/07/14 14:31:44;;;;;;;1.60;1.50;;;;;;;;;;5011016;28;20109;-69
2021/07/14 14:34:09;;;;;;;1.70;1.50;;;;;;;;;;5010506;28;20122;-70
2021/07/14 14:36:34;;;;;;;1.88;1.77;;;;;;;;;;5011258;28;20076;-70
2021/07/14 14:38:59;;;;;;;2.22;2.00;;;;;;;;;;5011119;28;20022;-68
2021/07/14 14:41:25;;;;;;;2.00;1.90;;;;;;;;;;5013019;28;20025;-70
2021/07/14 14:43:50;;;;;;;1.63;1.53;;;;;;;;;;5010502;28;20283;-70
2021/07/14 14:46:15;;;;;;;3.65;1.63;;;;;;;;;;5008821;28;20336;-71
2021/07/14 14:48:44;;;;;;;3.23;1.50;;;;;;;;;;5009614;28;20113;-70
2021/07/14 14:51:10;;;;;;;1.40;1.40;;;;;;;;;;5009575;28;20022;-70